sensor_id;sensor_type;location;lat;lon;timestamp;temperature;humidity
4223;DHT22;2125;51.436;14.138;2023-09-12T10:52:05;26.60;61.40
4223;DHT22;2125;51.436;14.138;2023-09-12T10:54:36;26.70;60.60
4223;DHT22;2125;51.436;14.138;2023-09-12T10:57:04;26.70;59.50
4223;DHT22;2125;51.436;14.138;2023-09-12T10:59:32;26.90;56.30
4223;DHT22;2125;51.436;14.138;2023-09-12T11:02:28;27.00;56.30
4223;DHT22;2125;51.436;14.138;2023-09-12T11:04:56;27.00;55.20
4223;DHT22;2125;51.436;14.138;2023-09-12T11:07:44;27.00;55.60
4223;DHT22;2125;51.436;14.138;2023-09-12T11:10:20;27.00;58.80
4223;DHT22;2125;51.436;14.138;2023-09-12T11:12:49;27.00;59.00
4223;DHT22;2125;51.436;14.138;2023-09-12T11:15:16;27.00;59.10
4223;DHT22;2125;51.436;14.138;2023-09-12T11:17:44;27.00;56.80
4223;DHT22;2125;51.436;14.138;2023-09-12T11:20:12;27.10;59.40
4223;DHT22;2125;51.436;14.138;2023-09-12T11:22:43;27.10;55.30
4223;DHT22;2125;51.436;14.138;2023-09-12T11:25:21;27.20;55.40
4223;DHT22;2125;51.436;14.138;2023-09-12T11:28:05;27.30;56.10
4223;DHT22;2125;51.436;14.138;2023-09-12T11:30:32;27.30;56.40
4223;DHT22;2125;51.436;14.138;2023-09-12T11:33:03;27.30;56.30
4223;DHT22;2125;51.436;14.138;2023-09-12T11:35:36;27.40;58.90
4223;DHT22;2125;51.436;14.138;2023-09-12T11:38:08;27.30;59.70
4223;DHT22;2125;51.436;14.138;2023-09-12T11:40:43;27.20;58.40
4223;DHT22;2125;51.436;14.138;2023-09-12T11:43:20;27.20;56.20
4223;DHT22;2125;51.436;14.138;2023-09-12T11:45:47;27.20;56.20
4223;DHT22;2125;51.436;14.138;2023-09-12T11:48:14;27.50;55.20
4223;DHT22;2125;51.436;14.138;2023-09-12T11:50:41;27.70;55.20
4223;DHT22;2125;51.436;14.138;2023-09-12T11:53:11;27.80;54.80
4223;DHT22;2125;51.436;14.138;2023-09-12T11:55:44;28.00;54.40
4223;DHT22;2125;51.436;14.138;2023-09-12T11:58:11;28.10;52.70
4223;DHT22;2125;51.436;14.138;2023-09-12T12:00:42;28.20;53.10
4223;DHT22;2125;51.436;14.138;2023-09-12T12:03:09;28.30;53.10
4223;DHT22;2125;51.436;14.138;2023-09-12T12:05:36;28.30;52.10
4223;DHT22;2125;51.436;14.138;2023-09-12T12:08:04;28.40;52.10
4223;DHT22;2125;51.436;14.138;2023-09-12T12:10:32;28.40;51.70
4223;DHT22;2125;51.436;14.138;2023-09-12T12:12:59;28.40;51.90
4223;DHT22;2125;51.436;14.138;2023-09-12T12:15:27;28.50;51.00
4223;DHT22;2125;51.436;14.138;2023-09-12T12:17:54;28.60;50.30
4223;DHT22;2125;51.436;14.138;2023-09-12T12:20:22;28.50;51.00
4223;DHT22;2125;51.436;14.138;2023-09-12T12:22:49;28.50;52.00
4223;DHT22;2125;51.436;14.138;2023-09-12T12:25:17;28.50;51.10
4223;DHT22;2125;51.436;14.138;2023-09-12T12:27:45;28.50;50.40
4223;DHT22;2125;51.436;14.138;2023-09-12T12:30:13;28.60;50.40
4223;DHT22;2125;51.436;14.138;2023-09-12T12:32:41;28.60;50.20
4223;DHT22;2125;51.436;14.138;2023-09-12T12:35:08;28.70;49.80
4223;DHT22;2125;51.436;14.138;2023-09-12T12:37:36;28.70;52.50
4223;DHT22;2125;51.436;14.138;2023-09-12T12:40:04;28.70;52.30
4223;DHT22;2125;51.436;14.138;2023-09-12T12:42:33;28.70;52.60
4223;DHT22;2125;51.436;14.138;2023-09-12T12:45:05;28.70;51.20
4223;DHT22;2125;51.436;14.138;2023-09-12T12:47:37;28.70;50.10
4223;DHT22;2125;51.436;14.138;2023-09-12T12:50:08;28.70;50.30
4223;DHT22;2125;51.436;14.138;2023-09-12T12:52:34;28.90;51.00
4223;DHT22;2125;51.436;14.138;2023-09-12T12:55:07;28.90;51.70
4223;DHT22;2125;51.436;14.138;2023-09-12T12:57:36;28.70;51.10
4223;DHT22;2125;51.436;14.138;2023-09-12T13:00:07;28.60;50.50
4223;DHT22;2125;51.436;14.138;2023-09-12T13:02:36;28.60;49.10
4223;DHT22;2125;51.436;14.138;2023-09-12T13:05:03;28.60;49.10
4223;DHT22;2125;51.436;14.138;2023-09-12T13:07:33;28.70;48.40
4223;DHT22;2125;51.436;14.138;2023-09-12T13:10:00;28.60;48.30
4223;DHT22;2125;51.436;14.138;2023-09-12T13:12:27;28.50;49.00
4223;DHT22;2125;51.436;14.138;2023-09-12T13:14:54;28.60;49.50
4223;DHT22;2125;51.436;14.138;2023-09-12T13:17:23;28.60;49.30
4223;DHT22;2125;51.436;14.138;2023-09-12T13:19:50;28.70;50.00
4223;DHT22;2125;51.436;14.138;2023-09-12T13:22:17;28.60;50.60
4223;DHT22;2125;51.436;14.138;2023-09-12T13:24:43;28.50;51.30
4223;DHT22;2125;51.436;14.138;2023-09-12T13:27:10;28.50;51.40
4223;DHT22;2125;51.436;14.138;2023-09-12T13:29:37;28.40;52.40
4223;DHT22;2125;51.436;14.138;2023-09-12T13:32:04;28.50;50.20
4223;DHT22;2125;51.436;14.138;2023-09-12T13:34:32;28.40;50.40
4223;DHT22;2125;51.436;14.138;2023-09-12T13:36:59;28.30;50.60
4223;DHT22;2125;51.436;14.138;2023-09-12T13:39:26;28.30;51.50
4223;DHT22;2125;51.436;14.138;2023-09-12T13:41:53;28.30;51.70
4223;DHT22;2125;51.436;14.138;2023-09-12T13:44:23;28.30;50.80
4223;DHT22;2125;51.436;14.138;2023-09-12T13:46:50;28.30;50.00
4223;DHT22;2125;51.436;14.138;2023-09-12T13:49:16;28.30;50.30
4223;DHT22;2125;51.436;14.138;2023-09-12T13:51:45;28.40;50.20
4223;DHT22;2125;51.436;14.138;2023-09-12T13:54:11;28.40;51.90
4223;DHT22;2125;51.436;14.138;2023-09-12T13:56:40;28.40;53.20
4223;DHT22;2125;51.436;14.138;2023-09-12T13:59:07;28.40;53.60
4223;DHT22;2125;51.436;14.138;2023-09-12T14:01:33;28.30;51.70
4223;DHT22;2125;51.436;14.138;2023-09-12T14:04:00;28.30;52.10
4223;DHT22;2125;51.436;14.138;2023-09-12T14:06:27;28.40;52.80
4223;DHT22;2125;51.436;14.138;2023-09-12T14:08:56;28.40;51.80
4223;DHT22;2125;51.436;14.138;2023-09-12T14:11:22;28.40;50.00
4223;DHT22;2125;51.436;14.138;2023-09-12T14:13:49;28.40;50.00
4223;DHT22;2125;51.436;14.138;2023-09-12T14:16:16;28.30;49.80
4223;DHT22;2125;51.436;14.138;2023-09-12T14:18:43;28.40;49.10
4223;DHT22;2125;51.436;14.138;2023-09-12T14:21:09;28.50;50.70
4223;DHT22;2125;51.436;14.138;2023-09-12T14:23:36;28.60;50.30
4223;DHT22;2125;51.436;14.138;2023-09-12T14:26:05;28.70;51.10
4223;DHT22;2125;51.436;14.138;2023-09-12T14:28:36;28.60;51.40
4223;DHT22;2125;51.436;14.138;2023-09-12T14:31:02;28.50;50.40
4223;DHT22;2125;51.436;14.138;2023-09-12T14:33:31;28.50;51.60
4223;DHT22;2125;51.436;14.138;2023-09-12T14:35:58;28.50;50.50
4223;DHT22;2125;51.436;14.138;2023-09-12T14:38:26;28.70;51.10
4223;DHT22;2125;51.436;14.138;2023-09-12T14:41:12;28.70;49.90
4223;DHT22;2125;51.436;14.138;2023-09-12T14:43:39;28.70;51.90
4223;DHT22;2125;51.436;14.138;2023-09-12T14:46:05;28.70;51.70
4223;DHT22;2125;51.436;14.138;2023-09-12T14:48:34;28.70;51.50
4223;DHT22;2125;51.436;14.138;2023-09-12T14:51:01;28.80;50.40
4223;DHT22;2125;51.436;14.138;2023-09-12T14:53:29;28.90;50.20
4223;DHT22;2125;51.436;14.138;2023-09-12T14:55:57;28.90;50.70
4223;DHT22;2125;51.436;14.138;2023-09-12T14:58:25;28.90;50.00
4223;DHT22;2125;51.436;14.138;2023-09-12T15:00:52;28.90;49.80
4223;DHT22;2125;51.436;14.138;2023-09-12T15:03:19;28.90;48.90
4223;DHT22;2125;51.436;14.138;2023-09-12T15:05:45;28.90;50.50
4223;DHT22;2125;51.436;14.138;2023-09-12T15:08:12;28.90;49.70
4223;DHT22;2125;51.436;14.138;2023-09-12T15:10:39;28.80;48.70
4223;DHT22;2125;51.436;14.138;2023-09-12T15:13:06;28.90;48.70
4223;DHT22;2125;51.436;14.138;2023-09-12T15:15:34;28.90;48.70
4223;DHT22;2125;51.436;14.138;2023-09-12T15:18:01;28.80;49.60
4223;DHT22;2125;51.436;14.138;2023-09-12T15:20:28;28.70;50.50
4223;DHT22;2125;51.436;14.138;2023-09-12T15:22:55;28.60;51.40
4223;DHT22;2125;51.436;14.138;2023-09-12T15:25:22;28.60;51.60
4223;DHT22;2125;51.436;14.138;2023-09-12T15:27:49;28.60;51.30
4223;DHT22;2125;51.436;14.138;2023-09-12T15:30:16;28.50;51.50
4223;DHT22;2125;51.436;14.138;2023-09-12T15:32:44;28.50;50.70
4223;DHT22;2125;51.436;14.138;2023-09-12T15:35:11;28.50;51.20
4223;DHT22;2125;51.436;14.138;2023-09-12T15:37:38;28.50;51.40
4223;DHT22;2125;51.436;14.138;2023-09-12T15:40:06;28.40;51.90
4223;DHT22;2125;51.436;14.138;2023-09-12T15:42:33;28.40;52.50
4223;DHT22;2125;51.436;14.138;2023-09-12T15:45:00;28.20;50.80
4223;DHT22;2125;51.436;14.138;2023-09-12T15:47:26;28.20;50.90
4223;DHT22;2125;51.436;14.138;2023-09-12T15:50:01;28.10;51.50
4223;DHT22;2125;51.436;14.138;2023-09-12T15:52:40;28.10;52.00
4223;DHT22;2125;51.436;14.138;2023-09-12T15:55:09;28.00;54.30
4223;DHT22;2125;51.436;14.138;2023-09-12T15:57:36;28.00;54.80
4223;DHT22;2125;51.436;14.138;2023-09-12T16:00:05;28.00;54.10
4223;DHT22;2125;51.436;14.138;2023-09-12T16:02:33;27.90;53.40
4223;DHT22;2125;51.436;14.138;2023-09-12T16:05:01;27.90;54.60
4223;DHT22;2125;51.436;14.138;2023-09-12T16:07:28;27.80;53.40
4223;DHT22;2125;51.436;14.138;2023-09-12T16:09:55;27.70;56.20
4223;DHT22;2125;51.436;14.138;2023-09-12T16:12:22;27.70;55.60
4223;DHT22;2125;51.436;14.138;2023-09-12T16:14:49;27.60;56.50
4223;DHT22;2125;51.436;14.138;2023-09-12T16:17:19;27.50;57.30
4223;DHT22;2125;51.436;14.138;2023-09-12T16:19:46;27.40;59.50
4223;DHT22;2125;51.436;14.138;2023-09-12T16:22:14;27.20;59.90
4223;DHT22;2125;51.436;14.138;2023-09-12T16:24:41;27.20;58.80
4223;DHT22;2125;51.436;14.138;2023-09-12T16:27:08;27.20;58.90
4223;DHT22;2125;51.436;14.138;2023-09-12T16:29:35;27.20;58.30
4223;DHT22;2125;51.436;14.138;2023-09-12T16:32:02;27.20;59.60
4223;DHT22;2125;51.436;14.138;2023-09-12T16:34:29;27.10;60.40
4223;DHT22;2125;51.436;14.138;2023-09-12T16:36:56;27.00;60.90
4223;DHT22;2125;51.436;14.138;2023-09-12T16:39:24;26.80;62.60
4223;DHT22;2125;51.436;14.138;2023-09-12T16:41:51;26.70;62.60
4223;DHT22;2125;51.436;14.138;2023-09-12T16:44:18;26.50;62.80
4223;DHT22;2125;51.436;14.138;2023-09-12T16:46:45;26.40;64.20
4223;DHT22;2125;51.436;14.138;2023-09-12T16:49:11;26.10;64.80
4223;DHT22;2125;51.436;14.138;2023-09-12T16:51:38;25.90;66.40
4223;DHT22;2125;51.436;14.138;2023-09-12T16:54:05;25.70;67.50
4223;DHT22;2125;51.436;14.138;2023-09-12T16:56:34;25.50;68.10
4223;DHT22;2125;51.436;14.138;2023-09-12T16:59:01;25.40;69.40
4223;DHT22;2125;51.436;14.138;2023-09-12T17:01:28;25.20;69.80
4223;DHT22;2125;51.436;14.138;2023-09-12T17:04:00;25.00;70.60
4223;DHT22;2125;51.436;14.138;2023-09-12T17:06:28;24.80;71.00
4223;DHT22;2125;51.436;14.138;2023-09-12T17:08:56;24.60;71.80
4223;DHT22;2125;51.436;14.138;2023-09-12T17:11:25;24.40;72.00
4223;DHT22;2125;51.436;14.138;2023-09-12T17:13:53;24.30;72.20
4223;DHT22;2125;51.436;14.138;2023-09-12T17:16:20;24.20;72.70
4223;DHT22;2125;51.436;14.138;2023-09-12T17:18:46;24.00;72.80
4223;DHT22;2125;51.436;14.138;2023-09-12T17:21:13;23.90;73.50
4223;DHT22;2125;51.436;14.138;2023-09-12T17:23:40;23.70;74.50
4223;DHT22;2125;51.436;14.138;2023-09-12T17:26:07;23.50;74.90
4223;DHT22;2125;51.436;14.138;2023-09-12T17:28:33;23.30;75.10
4223;DHT22;2125;51.436;14.138;2023-09-12T17:31:02;23.20;75.90
4223;DHT22;2125;51.436;14.138;2023-09-12T17:33:28;23.00;76.30
4223;DHT22;2125;51.436;14.138;2023-09-12T17:35:55;22.80;76.60
4223;DHT22;2125;51.436;14.138;2023-09-12T17:38:23;22.70;76.70
4223;DHT22;2125;51.436;14.138;2023-09-12T17:40:49;22.70;76.60
4223;DHT22;2125;51.436;14.138;2023-09-12T17:43:16;22.60;76.60
4223;DHT22;2125;51.436;14.138;2023-09-12T17:45:43;22.60;76.70
4223;DHT22;2125;51.436;14.138;2023-09-12T17:48:11;22.50;76.80
4223;DHT22;2125;51.436;14.138;2023-09-12T17:50:38;22.40;77.30
4223;DHT22;2125;51.436;14.138;2023-09-12T17:53:05;22.20;77.60
4223;DHT22;2125;51.436;14.138;2023-09-12T17:55:31;22.20;77.80
4223;DHT22;2125;51.436;14.138;2023-09-12T17:57:58;22.10;77.80
4223;DHT22;2125;51.436;14.138;2023-09-12T18:00:25;22.00;77.80
4223;DHT22;2125;51.436;14.138;2023-09-12T18:02:56;21.90;78.10
4223;DHT22;2125;51.436;14.138;2023-09-12T18:05:24;21.90;78.20
4223;DHT22;2125;51.436;14.138;2023-09-12T18:07:51;21.80;78.40
4223;DHT22;2125;51.436;14.138;2023-09-12T18:10:18;21.70;78.50
4223;DHT22;2125;51.436;14.138;2023-09-12T18:12:45;21.60;78.60
4223;DHT22;2125;51.436;14.138;2023-09-12T18:15:12;21.50;78.90
4223;DHT22;2125;51.436;14.138;2023-09-12T18:17:39;21.50;79.00
4223;DHT22;2125;51.436;14.138;2023-09-12T18:20:07;21.40;79.00
4223;DHT22;2125;51.436;14.138;2023-09-12T18:22:35;21.30;79.00
4223;DHT22;2125;51.436;14.138;2023-09-12T18:25:03;21.20;79.00
4223;DHT22;2125;51.436;14.138;2023-09-12T18:27:29;21.20;78.90
4223;DHT22;2125;51.436;14.138;2023-09-12T18:29:56;21.10;78.80
4223;DHT22;2125;51.436;14.138;2023-09-12T18:32:23;21.10;79.00
4223;DHT22;2125;51.436;14.138;2023-09-12T18:34:50;21.00;79.10
4223;DHT22;2125;51.436;14.138;2023-09-12T18:37:17;21.00;79.30
4223;DHT22;2125;51.436;14.138;2023-09-12T18:39:46;20.90;79.30
4223;DHT22;2125;51.436;14.138;2023-09-12T18:42:13;20.80;79.40
4223;DHT22;2125;51.436;14.138;2023-09-12T18:44:39;20.70;79.50
4223;DHT22;2125;51.436;14.138;2023-09-12T18:47:06;20.70;79.60
4223;DHT22;2125;51.436;14.138;2023-09-12T18:49:33;20.50;79.60
4223;DHT22;2125;51.436;14.138;2023-09-12T18:52:00;20.30;79.90
4223;DHT22;2125;51.436;14.138;2023-09-12T18:54:27;20.20;80.10
4223;DHT22;2125;51.436;14.138;2023-09-12T18:56:58;20.00;80.10
4223;DHT22;2125;51.436;14.138;2023-09-12T18:59:25;19.90;80.20
4223;DHT22;2125;51.436;14.138;2023-09-12T19:01:52;19.90;80.30
4223;DHT22;2125;51.436;14.138;2023-09-12T19:04:23;19.90;80.20
4223;DHT22;2125;51.436;14.138;2023-09-12T19:06:50;19.90;80.30
4223;DHT22;2125;51.436;14.138;2023-09-12T19:09:17;19.90;80.20
4223;DHT22;2125;51.436;14.138;2023-09-12T19:11:45;19.80;80.40
4223;DHT22;2125;51.436;14.138;2023-09-12T19:14:13;19.60;80.20
4223;DHT22;2125;51.436;14.138;2023-09-12T19:16:41;19.30;80.20
4223;DHT22;2125;51.436;14.138;2023-09-12T19:19:08;19.20;80.40
4223;DHT22;2125;51.436;14.138;2023-09-12T19:21:35;19.10;80.50
4223;DHT22;2125;51.436;14.138;2023-09-12T19:24:02;19.00;80.40
4223;DHT22;2125;51.436;14.138;2023-09-12T19:26:30;18.90;80.40
4223;DHT22;2125;51.436;14.138;2023-09-12T19:28:58;18.90;80.40
4223;DHT22;2125;51.436;14.138;2023-09-12T19:31:26;18.90;80.30
4223;DHT22;2125;51.436;14.138;2023-09-12T19:33:53;18.90;80.20
4223;DHT22;2125;51.436;14.138;2023-09-12T19:36:20;19.00;80.30
4223;DHT22;2125;51.436;14.138;2023-09-12T19:38:47;19.00;80.40
4223;DHT22;2125;51.436;14.138;2023-09-12T19:41:14;19.00;80.40
4223;DHT22;2125;51.436;14.138;2023-09-12T19:43:41;19.00;80.30
4223;DHT22;2125;51.436;14.138;2023-09-12T19:46:08;19.10;80.30
4223;DHT22;2125;51.436;14.138;2023-09-12T19:48:36;19.20;80.30
4223;DHT22;2125;51.436;14.138;2023-09-12T19:51:03;19.20;80.40
4223;DHT22;2125;51.436;14.138;2023-09-12T19:53:30;19.20;80.40
4223;DHT22;2125;51.436;14.138;2023-09-12T19:55:58;19.20;80.40
4223;DHT22;2125;51.436;14.138;2023-09-12T19:58:25;19.20;80.50
4223;DHT22;2125;51.436;14.138;2023-09-12T20:00:57;19.10;80.50
4223;DHT22;2125;51.436;14.138;2023-09-12T20:03:24;19.10;80.60
4223;DHT22;2125;51.436;14.138;2023-09-12T20:05:53;19.10;80.60
4223;DHT22;2125;51.436;14.138;2023-09-12T20:08:20;19.00;80.60
4223;DHT22;2125;51.436;14.138;2023-09-12T20:10:47;19.00;80.60
4223;DHT22;2125;51.436;14.138;2023-09-12T20:13:14;18.90;80.60
4223;DHT22;2125;51.436;14.138;2023-09-12T20:15:41;18.80;80.60
4223;DHT22;2125;51.436;14.138;2023-09-12T20:18:10;18.70;80.50
4223;DHT22;2125;51.436;14.138;2023-09-12T20:20:38;18.60;80.60
4223;DHT22;2125;51.436;14.138;2023-09-12T20:23:06;18.60;80.60
4223;DHT22;2125;51.436;14.138;2023-09-12T20:25:33;18.40;80.60
4223;DHT22;2125;51.436;14.138;2023-09-12T20:28:00;18.30;80.70
4223;DHT22;2125;51.436;14.138;2023-09-12T20:30:27;18.20;80.60
4223;DHT22;2125;51.436;14.138;2023-09-12T20:32:59;18.10;80.40
4223;DHT22;2125;51.436;14.138;2023-09-12T20:35:27;18.10;80.30
4223;DHT22;2125;51.436;14.138;2023-09-12T20:37:54;18.10;80.30
4223;DHT22;2125;51.436;14.138;2023-09-12T20:40:23;17.90;80.30
4223;DHT22;2125;51.436;14.138;2023-09-12T20:42:51;17.90;80.00
4223;DHT22;2125;51.436;14.138;2023-09-12T20:45:18;17.90;79.90
4223;DHT22;2125;51.436;14.138;2023-09-12T20:47:45;17.90;79.80
4223;DHT22;2125;51.436;14.138;2023-09-12T20:50:12;18.00;79.80
4223;DHT22;2125;51.436;14.138;2023-09-12T20:52:40;17.90;80.10
4223;DHT22;2125;51.436;14.138;2023-09-12T20:55:08;17.90;80.00
4223;DHT22;2125;51.436;14.138;2023-09-12T20:57:37;17.80;79.90
4223;DHT22;2125;51.436;14.138;2023-09-12T21:00:05;17.70;79.70
4223;DHT22;2125;51.436;14.138;2023-09-12T21:02:33;17.70;79.40
4223;DHT22;2125;51.436;14.138;2023-09-12T21:05:07;17.70;79.50
4223;DHT22;2125;51.436;14.138;2023-09-12T21:07:34;17.60;79.80
4223;DHT22;2125;51.436;14.138;2023-09-12T21:10:00;17.60;79.90
4223;DHT22;2125;51.436;14.138;2023-09-12T21:12:28;17.50;79.90
4223;DHT22;2125;51.436;14.138;2023-09-12T21:14:57;17.50;79.80
4223;DHT22;2125;51.436;14.138;2023-09-12T21:17:25;17.50;79.70
4223;DHT22;2125;51.436;14.138;2023-09-12T21:19:52;17.40;79.80
4223;DHT22;2125;51.436;14.138;2023-09-12T21:22:19;17.40;79.50
4223;DHT22;2125;51.436;14.138;2023-09-12T21:24:46;17.40;78.70
4223;DHT22;2125;51.436;14.138;2023-09-12T21:27:13;17.40;78.30
4223;DHT22;2125;51.436;14.138;2023-09-12T21:29:40;17.50;77.70
4223;DHT22;2125;51.436;14.138;2023-09-12T21:32:08;17.50;77.00
4223;DHT22;2125;51.436;14.138;2023-09-12T21:34:35;17.70;76.70
4223;DHT22;2125;51.436;14.138;2023-09-12T21:37:02;17.70;77.50
4223;DHT22;2125;51.436;14.138;2023-09-12T21:39:30;17.80;77.60
4223;DHT22;2125;51.436;14.138;2023-09-12T21:42:00;17.80;78.10
4223;DHT22;2125;51.436;14.138;2023-09-12T21:44:27;17.90;78.90
4223;DHT22;2125;51.436;14.138;2023-09-12T21:46:53;17.90;79.40
4223;DHT22;2125;51.436;14.138;2023-09-12T21:49:22;17.90;79.70
4223;DHT22;2125;51.436;14.138;2023-09-12T21:51:48;18.00;79.90
4223;DHT22;2125;51.436;14.138;2023-09-12T21:54:15;18.00;80.00
4223;DHT22;2125;51.436;14.138;2023-09-12T21:56:42;17.90;80.10
4223;DHT22;2125;51.436;14.138;2023-09-12T21:59:09;17.90;80.10
4223;DHT22;2125;51.436;14.138;2023-09-12T22:01:36;17.80;80.00
4223;DHT22;2125;51.436;14.138;2023-09-12T22:04:04;17.80;80.00
4223;DHT22;2125;51.436;14.138;2023-09-12T22:06:32;17.70;80.00
4223;DHT22;2125;51.436;14.138;2023-09-12T22:08:59;17.70;80.00
4223;DHT22;2125;51.436;14.138;2023-09-12T22:11:29;17.70;80.20
4223;DHT22;2125;51.436;14.138;2023-09-12T22:13:55;17.50;80.50
4223;DHT22;2125;51.436;14.138;2023-09-12T22:16:22;17.40;80.20
4223;DHT22;2125;51.436;14.138;2023-09-12T22:18:49;17.40;80.10
4223;DHT22;2125;51.436;14.138;2023-09-12T22:21:16;17.40;80.00
4223;DHT22;2125;51.436;14.138;2023-09-12T22:23:44;17.40;79.80
4223;DHT22;2125;51.436;14.138;2023-09-12T22:26:12;17.50;79.90
4223;DHT22;2125;51.436;14.138;2023-09-12T22:28:39;17.50;79.80
4223;DHT22;2125;51.436;14.138;2023-09-12T22:31:07;17.50;79.90
4223;DHT22;2125;51.436;14.138;2023-09-12T22:33:34;17.50;79.90
4223;DHT22;2125;51.436;14.138;2023-09-12T22:36:01;17.50;79.90
4223;DHT22;2125;51.436;14.138;2023-09-12T22:38:28;17.50;80.10
4223;DHT22;2125;51.436;14.138;2023-09-12T22:40:56;17.50;80.20
4223;DHT22;2125;51.436;14.138;2023-09-12T22:43:22;17.40;80.80
4223;DHT22;2125;51.436;14.138;2023-09-12T22:45:49;17.30;80.80
4223;DHT22;2125;51.436;14.138;2023-09-12T22:48:16;17.20;80.80
4223;DHT22;2125;51.436;14.138;2023-09-12T22:50:43;17.10;80.70
4223;DHT22;2125;51.436;14.138;2023-09-12T22:53:13;17.00;80.20
4223;DHT22;2125;51.436;14.138;2023-09-12T22:55:40;16.90;80.10
4223;DHT22;2125;51.436;14.138;2023-09-12T22:58:08;16.90;80.10
4223;DHT22;2125;51.436;14.138;2023-09-12T23:00:35;16.80;79.90
4223;DHT22;2125;51.436;14.138;2023-09-12T23:03:03;16.80;79.40
4223;DHT22;2125;51.436;14.138;2023-09-12T23:05:30;16.80;79.30
4223;DHT22;2125;51.436;14.138;2023-09-12T23:07:57;16.80;79.00
4223;DHT22;2125;51.436;14.138;2023-09-12T23:10:24;16.80;79.40
4223;DHT22;2125;51.436;14.138;2023-09-12T23:12:51;16.90;79.30
4223;DHT22;2125;51.436;14.138;2023-09-12T23:15:19;16.80;79.40
4223;DHT22;2125;51.436;14.138;2023-09-12T23:17:46;16.70;79.10
4223;DHT22;2125;51.436;14.138;2023-09-12T23:20:13;16.80;78.30
4223;DHT22;2125;51.436;14.138;2023-09-12T23:22:40;16.80;77.90
4223;DHT22;2125;51.436;14.138;2023-09-12T23:25:07;16.90;77.60
4223;DHT22;2125;51.436;14.138;2023-09-12T23:27:35;16.90;77.40
4223;DHT22;2125;51.436;14.138;2023-09-12T23:30:02;16.90;77.10
4223;DHT22;2125;51.436;14.138;2023-09-12T23:32:30;17.00;77.70
4223;DHT22;2125;51.436;14.138;2023-09-12T23:34:57;17.00;78.00
4223;DHT22;2125;51.436;14.138;2023-09-12T23:37:24;17.00;78.10
4223;DHT22;2125;51.436;14.138;2023-09-12T23:39:51;17.00;78.20
4223;DHT22;2125;51.436;14.138;2023-09-12T23:42:18;17.10;78.10
4223;DHT22;2125;51.436;14.138;2023-09-12T23:44:46;17.10;78.30
4223;DHT22;2125;51.436;14.138;2023-09-12T23:47:13;17.10;79.00
4223;DHT22;2125;51.436;14.138;2023-09-12T23:49:42;17.00;79.30
4223;DHT22;2125;51.436;14.138;2023-09-12T23:52:09;17.00;79.90
4223;DHT22;2125;51.436;14.138;2023-09-12T23:54:36;16.90;80.30
4223;DHT22;2125;51.436;14.138;2023-09-12T23:57:03;16.80;80.60
4223;DHT22;2125;51.436;14.138;2023-09-12T23:59:30;16.60;80.40
